createdAt,value
2022-10-31T00:01:26.052Z,11.82
2022-10-31T00:03:53.172Z,11.57
2022-10-31T00:06:19.916Z,10.45
2022-10-31T00:08:47.496Z,12.52
2022-10-31T00:11:14.566Z,14.25
2022-10-31T00:13:41.247Z,13.98
2022-10-31T00:16:18.560Z,10.88
2022-10-31T00:18:48.784Z,13.25
2022-10-31T00:21:15.947Z,13.10
2022-10-31T00:23:42.614Z,10.75
2022-10-31T00:26:12.417Z,15.27
2022-10-31T00:28:39.319Z,12.15
2022-10-31T00:31:09.523Z,11.25
2022-10-31T00:33:38.477Z,13.18
2022-10-31T00:36:07.025Z,14.63
2022-10-31T00:38:33.963Z,13.63
2022-10-31T00:41:00.834Z,15.52
2022-10-31T00:43:27.553Z,16.05
2022-10-31T00:45:54.230Z,14.98
2022-10-31T00:48:20.896Z,16.27
2022-10-31T00:50:47.575Z,14.07
2022-10-31T00:53:14.261Z,12.40
2022-10-31T00:55:40.917Z,12.23
2022-10-31T00:58:07.854Z,14.77
2022-10-31T01:00:34.582Z,11.75
2022-10-31T01:03:01.803Z,13.18
2022-10-31T01:05:28.992Z,16.10
2022-10-31T01:07:55.686Z,11.00
2022-10-31T01:10:22.499Z,11.18
2022-10-31T01:12:50.242Z,9.68
2022-10-31T01:15:20.294Z,11.85
2022-10-31T01:17:47.484Z,14.18
2022-10-31T01:20:16.103Z,12.35
2022-10-31T01:22:43.157Z,11.13
2022-10-31T01:25:12.744Z,11.68
2022-10-31T01:27:39.578Z,18.83
2022-10-31T01:30:06.837Z,13.73
2022-10-31T01:32:33.582Z,14.68
2022-10-31T01:35:00.266Z,13.38
2022-10-31T01:37:26.941Z,13.60
2022-10-31T01:39:53.690Z,13.90
2022-10-31T01:42:22.545Z,11.90
2022-10-31T01:44:56.719Z,14.30
2022-10-31T01:47:34.695Z,16.88
2022-10-31T01:50:07.192Z,12.02
2022-10-31T01:52:39.672Z,10.45
2022-10-31T01:55:11.828Z,8.63
2022-10-31T01:57:44.215Z,11.88
2022-10-31T02:00:12.177Z,12.10
2022-10-31T02:02:39.695Z,9.95
2022-10-31T02:05:13.752Z,15.10
2022-10-31T02:08:05.526Z,14.57
2022-10-31T02:10:34.354Z,12.02
2022-10-31T02:13:04.593Z,14.40
2022-10-31T02:15:32.789Z,12.10
2022-10-31T02:18:00.418Z,13.30
2022-10-31T02:20:38.163Z,13.05
2022-10-31T02:23:35.336Z,12.07
2022-10-31T02:26:43.129Z,11.80
2022-10-31T02:29:54.097Z,13.07
2022-10-31T02:32:55.196Z,10.70
2022-10-31T02:35:36.890Z,15.40
2022-10-31T02:38:46.250Z,11.43
2022-10-31T02:41:38.711Z,12.60
2022-10-31T02:44:18.337Z,10.13
2022-10-31T02:47:09.689Z,12.63
2022-10-31T02:49:55.387Z,17.35
2022-10-31T02:52:25.285Z,14.65
2022-10-31T02:54:52.437Z,13.07
2022-10-31T02:57:24.419Z,11.13
2022-10-31T02:59:55.962Z,11.70
2022-10-31T03:02:46.691Z,11.57
2022-10-31T03:05:33.686Z,11.63
2022-10-31T03:08:06.260Z,17.63
2022-10-31T03:10:46.908Z,15.15
2022-10-31T03:13:42.051Z,11.95
2022-10-31T03:16:11.842Z,15.65
2022-10-31T03:18:49.592Z,16.45
2022-10-31T03:21:23.103Z,15.00
2022-10-31T03:23:52.489Z,11.93
2022-10-31T03:26:21.617Z,13.20
2022-10-31T03:28:55.642Z,13.93
2022-10-31T03:31:27.387Z,11.48
2022-10-31T03:33:57.112Z,9.63
2022-10-31T03:36:24.313Z,14.55
2022-10-31T03:38:52.284Z,15.93
2022-10-31T03:41:24.774Z,13.98
2022-10-31T03:43:59.150Z,14.73
2022-10-31T03:46:25.978Z,11.55
2022-10-31T03:48:53.033Z,11.82
2022-10-31T03:51:45.484Z,13.73
2022-10-31T03:54:18.909Z,11.90
2022-10-31T03:57:01.169Z,16.23
2022-10-31T03:59:33.842Z,13.45
2022-10-31T04:02:06.793Z,12.98
2022-10-31T04:04:35.269Z,14.57
2022-10-31T04:07:04.140Z,14.25
2022-10-31T04:09:34.138Z,14.68
2022-10-31T04:12:03.693Z,14.93
2022-10-31T04:14:33.755Z,18.17
2022-10-31T04:17:02.375Z,14.90
2022-10-31T04:19:29.040Z,12.63
2022-10-31T04:21:55.683Z,15.00
2022-10-31T04:24:22.423Z,18.73
2022-10-31T04:26:49.078Z,14.35
2022-10-31T04:29:15.729Z,12.32
2022-10-31T04:31:42.411Z,13.30
2022-10-31T04:34:09.088Z,18.63
2022-10-31T04:36:35.724Z,14.82
2022-10-31T04:39:02.490Z,12.70
2022-10-31T04:41:29.153Z,12.48
2022-10-31T04:43:55.838Z,17.42
2022-10-31T04:46:22.644Z,14.50
2022-10-31T04:48:49.982Z,12.02
2022-10-31T04:51:16.628Z,14.07
2022-10-31T04:53:45.630Z,18.77
2022-10-31T04:56:13.651Z,15.98
2022-10-31T04:58:40.505Z,10.50
2022-10-31T05:01:07.220Z,14.10
2022-10-31T05:03:34.037Z,12.43
2022-10-31T05:06:01.762Z,11.52
2022-10-31T05:08:28.465Z,18.25
2022-10-31T05:10:55.163Z,13.43
2022-10-31T05:15:53.425Z,17.67
2022-10-31T05:18:20.124Z,18.10
2022-10-31T05:20:46.839Z,15.00
2022-10-31T05:23:13.765Z,11.93
2022-10-31T05:25:41.540Z,13.75
2022-10-31T05:28:08.560Z,14.20
2022-10-31T05:30:35.997Z,15.90
2022-10-31T05:33:03.108Z,14.68
2022-10-31T05:35:32.363Z,12.80
2022-10-31T05:37:59.963Z,12.88
2022-10-31T05:40:28.102Z,13.38
2022-10-31T05:42:57.153Z,14.98
2022-10-31T05:45:24.344Z,17.02
2022-10-31T05:47:51.923Z,15.30
2022-10-31T05:50:18.994Z,17.45
2022-10-31T05:52:45.827Z,18.98
2022-10-31T05:55:12.549Z,19.42
2022-10-31T05:57:39.214Z,18.65
2022-10-31T06:00:07.138Z,21.10
2022-10-31T06:02:35.377Z,19.75
2022-10-31T06:05:02.846Z,21.92
2022-10-31T06:07:34.011Z,21.00
2022-10-31T06:10:01.289Z,20.95
2022-10-31T06:12:28.908Z,24.08
2022-10-31T06:14:57.498Z,21.85
2022-10-31T06:17:24.230Z,19.75
2022-10-31T06:22:22.485Z,23.77
2022-10-31T06:24:49.164Z,23.58
2022-10-31T06:27:15.862Z,22.05
2022-10-31T06:29:42.656Z,20.90
2022-10-31T06:32:12.607Z,20.40
2022-10-31T06:34:40.318Z,19.83
2022-10-31T06:37:11.620Z,18.65
2022-10-31T06:39:38.529Z,18.58
2022-10-31T06:42:05.589Z,20.58
2022-10-31T06:44:32.666Z,21.25
2022-10-31T06:46:59.636Z,23.15
2022-10-31T06:49:26.400Z,21.85
2022-10-31T06:51:53.310Z,21.85
2022-10-31T06:54:20.050Z,20.92
2022-10-31T06:56:48.299Z,24.30
2022-10-31T06:59:16.105Z,22.38
2022-10-31T07:01:43.045Z,23.58
2022-10-31T07:04:11.243Z,31.23
2022-10-31T07:06:38.440Z,21.42
2022-10-31T07:09:05.718Z,23.20
2022-10-31T07:11:32.545Z,22.73
2022-10-31T07:13:59.264Z,22.58
2022-10-31T07:16:25.972Z,22.88
2022-10-31T07:18:52.658Z,25.55
2022-10-31T07:21:19.508Z,21.88
2022-10-31T07:23:49.056Z,24.15
2022-10-31T07:26:15.999Z,24.63
2022-10-31T07:28:44.296Z,24.42
2022-10-31T07:31:14.265Z,24.25
2022-10-31T07:33:44.264Z,24.77
2022-10-31T07:36:13.731Z,22.02
2022-10-31T07:38:40.406Z,23.90
2022-10-31T07:41:07.106Z,21.55
2022-10-31T07:43:33.884Z,21.98
2022-10-31T07:46:00.570Z,26.42
2022-10-31T07:48:27.256Z,24.75
2022-10-31T07:50:53.909Z,22.13
2022-10-31T07:53:20.577Z,25.13
2022-10-31T07:55:47.365Z,22.00
2022-10-31T07:58:16.378Z,21.73
2022-10-31T08:00:45.581Z,21.65
2022-10-31T08:03:14.986Z,23.05
2022-10-31T08:05:42.136Z,20.73
2022-10-31T08:08:09.559Z,22.15
2022-10-31T08:10:37.289Z,28.70
2022-10-31T08:13:06.688Z,24.02
2022-10-31T08:15:37.809Z,23.83
2022-10-31T08:18:05.567Z,27.55
2022-10-31T08:20:32.300Z,29.13
2022-10-31T08:23:01.065Z,26.95
2022-10-31T08:25:32.384Z,27.85
2022-10-31T08:28:03.095Z,28.38
2022-10-31T08:30:33.537Z,27.23
2022-10-31T08:33:04.965Z,29.77
2022-10-31T08:35:33.193Z,32.03
2022-10-31T08:38:00.645Z,28.42
2022-10-31T08:40:31.606Z,31.42
2022-10-31T08:43:06.844Z,28.60
2022-10-31T08:45:34.939Z,27.67
2022-10-31T08:48:04.567Z,29.45
2022-10-31T08:50:33.259Z,28.52
2022-10-31T08:53:08.068Z,29.83
2022-10-31T08:55:39.738Z,28.85
2022-10-31T08:58:10.140Z,28.83
2022-10-31T09:03:05.854Z,27.52
2022-10-31T09:05:33.183Z,23.48
2022-10-31T09:08:01.796Z,29.25
2022-10-31T09:10:30.145Z,33.70
2022-10-31T09:13:01.837Z,25.23
2022-10-31T09:15:29.615Z,26.95
2022-10-31T09:17:56.315Z,31.75
2022-10-31T09:20:23.333Z,29.10
2022-10-31T09:22:57.456Z,35.50
2022-10-31T09:25:24.318Z,31.17
2022-10-31T09:27:51.041Z,29.02
2022-10-31T09:30:17.763Z,29.65
2022-10-31T09:32:45.508Z,35.88
2022-10-31T09:35:13.464Z,27.95
2022-10-31T09:37:40.253Z,29.15
2022-10-31T09:40:07.152Z,29.17
2022-10-31T09:43:03.254Z,32.17
2022-10-31T09:45:55.639Z,29.95
2022-10-31T09:48:39.158Z,28.67
2022-10-31T09:51:10.545Z,27.55
2022-10-31T09:53:42.503Z,28.25
2022-10-31T09:56:14.025Z,28.63
2022-10-31T09:58:51.655Z,25.38
2022-10-31T10:01:45.465Z,29.45
2022-10-31T10:04:20.856Z,28.92
2022-10-31T10:06:50.749Z,23.25
2022-10-31T10:09:17.747Z,25.23
2022-10-31T10:12:02.670Z,27.05
2022-10-31T10:14:44.373Z,24.10
2022-10-31T10:17:11.098Z,22.35
2022-10-31T10:19:52.568Z,22.58
2022-10-31T10:22:51.396Z,23.80
2022-10-31T10:25:29.355Z,21.95
2022-10-31T10:28:12.820Z,21.77
2022-10-31T10:30:42.339Z,23.90
2022-10-31T10:33:21.686Z,25.40
2022-10-31T10:35:59.713Z,22.02
2022-10-31T10:38:51.958Z,30.85
2022-10-31T10:41:21.507Z,23.30
2022-10-31T10:43:52.254Z,22.45
2022-10-31T10:46:56.572Z,25.08
2022-10-31T10:49:36.910Z,21.65
2022-10-31T10:55:18.869Z,23.27
2022-10-31T10:58:02.093Z,23.95
2022-10-31T11:00:41.346Z,25.60
2022-10-31T11:03:09.051Z,22.33
2022-10-31T11:05:48.108Z,26.48
2022-10-31T11:08:28.624Z,28.42
2022-10-31T11:11:19.144Z,32.58
2022-10-31T11:13:49.059Z,30.40
2022-10-31T11:16:29.804Z,27.90
2022-10-31T11:19:19.925Z,24.27
2022-10-31T11:21:52.781Z,25.88
2022-10-31T11:24:28.751Z,31.70
2022-10-31T11:27:11.823Z,34.35
2022-10-31T11:29:38.562Z,28.15
2022-10-31T11:32:05.487Z,32.03
2022-10-31T11:34:36.813Z,31.80
2022-10-31T11:37:27.544Z,29.08
2022-10-31T11:40:01.282Z,29.35
2022-10-31T11:42:39.343Z,30.08
2022-10-31T11:45:18.515Z,28.13
2022-10-31T11:47:51.407Z,32.38
2022-10-31T11:50:26.339Z,30.38
2022-10-31T11:55:36.535Z,30.73
2022-10-31T11:58:04.488Z,34.05
2022-10-31T12:00:38.686Z,28.02
2022-10-31T12:03:25.082Z,33.63
2022-10-31T12:06:15.045Z,26.88
2022-10-31T12:08:47.314Z,31.60
2022-10-31T12:11:22.946Z,38.00
2022-10-31T12:14:21.815Z,34.45
2022-10-31T12:17:06.202Z,37.67
2022-10-31T12:19:55.411Z,35.70
2022-10-31T12:22:45.974Z,44.25
2022-10-31T12:25:20.017Z,35.08
2022-10-31T12:27:56.230Z,36.13
2022-10-31T12:30:49.000Z,39.22
2022-10-31T12:33:27.190Z,39.33
2022-10-31T12:36:11.056Z,38.15
2022-10-31T12:38:58.981Z,35.03
2022-10-31T12:42:00.944Z,34.90
2022-10-31T12:44:49.414Z,37.47
2022-10-31T12:47:45.362Z,34.67
2022-10-31T12:50:29.503Z,39.92
2022-10-31T12:53:14.936Z,36.90
2022-10-31T12:56:14.938Z,33.30
2022-10-31T12:58:52.539Z,32.80
2022-10-31T13:01:25.558Z,32.17
2022-10-31T13:04:10.932Z,33.97
2022-10-31T13:06:44.890Z,32.40
2022-10-31T13:09:18.102Z,31.48
2022-10-31T13:11:54.779Z,33.42
2022-10-31T13:14:42.781Z,33.00
2022-10-31T13:17:29.602Z,38.05
2022-10-31T13:20:13.320Z,32.30
2022-10-31T13:22:44.882Z,33.30
2022-10-31T13:25:20.324Z,36.20
2022-10-31T13:27:54.195Z,29.13
2022-10-31T13:30:23.351Z,32.80
2022-10-31T13:32:56.991Z,33.00
2022-10-31T13:35:36.450Z,35.53
2022-10-31T13:38:06.136Z,32.10
2022-10-31T13:40:54.709Z,35.42
2022-10-31T13:43:40.859Z,32.40
2022-10-31T13:49:31.637Z,32.25
2022-10-31T13:52:10.417Z,34.35
2022-10-31T13:54:41.289Z,32.58
2022-10-31T13:57:33.175Z,33.92
2022-10-31T14:00:21.358Z,28.67
2022-10-31T14:02:53.944Z,32.47
2022-10-31T14:05:32.889Z,35.33
2022-10-31T14:08:03.979Z,33.45
2022-10-31T14:10:38.138Z,29.23
2022-10-31T14:13:09.563Z,33.83
2022-10-31T14:15:39.105Z,33.25
2022-10-31T14:18:07.751Z,36.47
2022-10-31T14:20:42.508Z,34.70
2022-10-31T14:23:45.943Z,30.67
2022-10-31T14:26:31.992Z,32.20
2022-10-31T14:29:25.617Z,36.63
2022-10-31T14:32:27.631Z,33.88
2022-10-31T14:34:58.359Z,34.88
2022-10-31T14:38:05.996Z,31.75
2022-10-31T14:41:05.139Z,34.92
2022-10-31T14:43:53.339Z,32.83
2022-10-31T14:46:22.998Z,38.67
2022-10-31T14:48:54.015Z,32.55
2022-10-31T14:51:29.491Z,35.65
2022-10-31T14:53:58.427Z,38.67
2022-10-31T14:56:31.419Z,35.97
2022-10-31T14:59:02.798Z,30.85
2022-10-31T15:01:37.782Z,34.35
2022-10-31T15:04:24.186Z,34.25
2022-10-31T15:07:23.466Z,33.05
2022-10-31T15:10:00.483Z,30.73
2022-10-31T15:12:28.862Z,35.97
2022-10-31T15:14:56.891Z,31.58
2022-10-31T15:17:25.671Z,30.65
2022-10-31T15:19:53.994Z,28.65
2022-10-31T15:22:24.233Z,32.75
2022-10-31T15:27:24.868Z,34.42
2022-10-31T15:29:56.665Z,30.27
2022-10-31T15:32:28.275Z,33.10
2022-10-31T15:34:57.067Z,29.63
2022-10-31T15:37:26.039Z,36.00
2022-10-31T15:39:53.041Z,33.53
2022-10-31T15:42:21.903Z,33.85
2022-10-31T15:45:14.577Z,29.92
2022-10-31T15:47:49.169Z,34.38
2022-10-31T15:50:46.807Z,30.90
2022-10-31T15:53:50.731Z,29.77
2022-10-31T15:56:23.840Z,30.25
2022-10-31T15:58:53.112Z,32.50
2022-10-31T16:01:28.505Z,31.75
2022-10-31T16:04:03.622Z,32.80
2022-10-31T16:06:31.390Z,31.30
2022-10-31T16:08:58.189Z,31.88
2022-10-31T16:11:36.374Z,31.83
2022-10-31T16:14:23.096Z,32.72
2022-10-31T16:16:54.803Z,30.73
2022-10-31T16:19:27.577Z,34.30
2022-10-31T16:22:05.793Z,31.83
2022-10-31T16:24:35.273Z,42.33
2022-10-31T16:27:07.356Z,32.00
2022-10-31T16:29:42.747Z,34.08
2022-10-31T16:32:28.469Z,34.20
2022-10-31T16:35:19.334Z,29.65
2022-10-31T16:37:46.199Z,30.40
2022-10-31T16:40:14.487Z,32.17
2022-10-31T16:42:45.389Z,30.67
2022-10-31T16:45:21.324Z,36.50
2022-10-31T16:47:49.397Z,33.00
2022-10-31T16:50:27.396Z,32.95
2022-10-31T16:53:12.972Z,33.83
2022-10-31T16:55:47.167Z,32.70
2022-10-31T16:58:18.529Z,33.13
2022-10-31T17:00:45.802Z,39.00
2022-10-31T17:03:12.581Z,36.20
2022-10-31T17:05:40.044Z,36.20
2022-10-31T17:08:06.969Z,36.20
2022-10-31T17:10:34.257Z,31.48
2022-10-31T17:13:03.762Z,37.22
2022-10-31T17:15:38.437Z,33.13
2022-10-31T17:18:05.179Z,32.38
2022-10-31T17:20:32.087Z,32.30
2022-10-31T17:23:00.259Z,36.00
2022-10-31T17:25:30.058Z,33.38
2022-10-31T17:27:56.815Z,34.08
2022-10-31T17:30:24.067Z,33.72
2022-10-31T17:32:51.539Z,36.50
2022-10-31T17:35:19.227Z,29.55
2022-10-31T17:37:46.896Z,34.15
2022-10-31T17:40:21.630Z,39.67
2022-10-31T17:42:56.898Z,37.78
2022-10-31T17:45:25.698Z,32.20
2022-10-31T17:47:53.885Z,31.98
2022-10-31T17:50:23.030Z,35.63
2022-10-31T17:52:49.793Z,32.90
2022-10-31T17:55:17.084Z,37.22
2022-10-31T17:57:46.747Z,32.17
2022-10-31T18:00:17.741Z,31.75
2022-10-31T18:02:44.529Z,34.70
2022-10-31T18:05:11.329Z,35.60
2022-10-31T18:07:38.121Z,32.30
2022-10-31T18:10:05.817Z,34.20
2022-10-31T18:12:32.626Z,38.60
2022-10-31T18:14:59.401Z,28.70
2022-10-31T18:17:26.410Z,31.30
2022-10-31T18:19:53.122Z,33.33
2022-10-31T18:22:19.811Z,33.40
2022-10-31T18:24:46.555Z,28.90
2022-10-31T18:27:13.255Z,32.10
2022-10-31T18:29:39.922Z,28.88
2022-10-31T18:32:09.455Z,25.75
2022-10-31T18:34:36.784Z,33.15
2022-10-31T18:37:03.679Z,28.20
2022-10-31T18:39:30.502Z,30.88
2022-10-31T18:41:57.360Z,28.27
2022-10-31T18:44:24.194Z,34.75
2022-10-31T18:46:50.840Z,34.88
2022-10-31T18:49:22.623Z,33.67
2022-10-31T18:51:50.631Z,24.70
2022-10-31T18:54:17.572Z,27.33
2022-10-31T18:56:44.923Z,30.23
2022-10-31T18:59:12.317Z,23.77
2022-10-31T19:01:39.507Z,30.63
2022-10-31T19:04:06.298Z,22.52
2022-10-31T19:06:33.026Z,23.50
2022-10-31T19:09:02.856Z,24.85
2022-10-31T19:11:33.044Z,23.67
2022-10-31T19:14:00.216Z,23.60
2022-10-31T19:16:27.387Z,22.30
2022-10-31T19:18:55.892Z,20.65
2022-10-31T19:21:23.145Z,22.65
2022-10-31T19:23:53.173Z,20.77
2022-10-31T19:26:19.912Z,19.40
2022-10-31T19:28:46.630Z,32.67
2022-10-31T19:31:13.721Z,27.85
2022-10-31T19:33:40.404Z,20.13
2022-10-31T19:36:09.980Z,21.25
2022-10-31T19:38:38.509Z,20.35
2022-10-31T19:41:08.948Z,20.08
2022-10-31T19:43:35.697Z,18.73
2022-10-31T19:46:03.926Z,16.83
2022-10-31T19:48:31.493Z,22.25
2022-10-31T19:51:19.888Z,16.95
2022-10-31T19:53:47.157Z,18.88
2022-10-31T19:56:18.060Z,17.83
2022-10-31T19:58:44.938Z,15.57
2022-10-31T20:01:17.177Z,15.23
2022-10-31T20:03:45.224Z,17.83
2022-10-31T20:06:21.468Z,15.68
2022-10-31T20:08:48.296Z,17.10
2022-10-31T20:11:15.370Z,17.52
2022-10-31T20:13:42.111Z,17.58
2022-10-31T20:16:11.406Z,18.38
2022-10-31T20:18:39.652Z,14.35
2022-10-31T20:21:12.729Z,18.48
2022-10-31T20:23:40.355Z,18.77
2022-10-31T20:26:09.924Z,12.30
2022-10-31T20:28:41.460Z,14.55
2022-10-31T20:31:21.868Z,16.75
2022-10-31T20:33:49.447Z,18.30
2022-10-31T20:36:19.558Z,14.55
2022-10-31T20:38:46.634Z,17.90
2022-10-31T20:41:14.980Z,12.80
2022-10-31T20:43:42.156Z,14.88
2022-10-31T20:46:16.551Z,16.73
2022-10-31T20:48:43.347Z,19.23
2022-10-31T20:51:18.910Z,15.30
2022-10-31T20:53:45.924Z,17.23
2022-10-31T20:56:15.420Z,13.88
2022-10-31T20:58:43.588Z,16.00
2022-10-31T21:01:12.843Z,17.33
2022-10-31T21:03:40.426Z,17.27
2022-10-31T21:06:07.857Z,18.88
2022-10-31T21:08:35.526Z,14.35
2022-10-31T21:11:08.447Z,19.48
2022-10-31T21:13:40.781Z,19.95
2022-10-31T21:16:27.121Z,13.50
2022-10-31T21:18:54.535Z,12.98
2022-10-31T21:21:29.056Z,14.88
2022-10-31T21:24:04.940Z,18.83
2022-10-31T21:26:35.451Z,16.05
2022-10-31T21:29:03.411Z,16.15
2022-10-31T21:31:30.141Z,19.05
2022-10-31T21:33:57.601Z,14.23
2022-10-31T21:36:26.114Z,12.52
2022-10-31T21:38:54.184Z,14.13
2022-10-31T21:41:21.733Z,14.90
2022-10-31T21:43:50.822Z,13.82
2022-10-31T21:46:20.321Z,11.68
2022-10-31T21:48:48.032Z,15.97
2022-10-31T21:51:22.647Z,14.52
2022-10-31T21:54:08.480Z,14.00
2022-10-31T21:56:35.844Z,13.95
2022-10-31T21:59:02.698Z,12.50
2022-10-31T22:01:29.714Z,15.85
2022-10-31T22:03:57.030Z,14.23
2022-10-31T22:06:26.537Z,19.30
2022-10-31T22:08:54.056Z,12.47
2022-10-31T22:11:21.021Z,13.45
2022-10-31T22:13:49.826Z,18.73
2022-10-31T22:16:19.012Z,13.27
2022-10-31T22:18:46.305Z,12.40
2022-10-31T22:21:18.321Z,11.88
2022-10-31T22:23:51.399Z,14.00
2022-10-31T22:26:21.456Z,15.95
2022-10-31T22:28:53.509Z,16.60
2022-10-31T22:31:22.120Z,14.20
2022-10-31T22:33:49.660Z,11.80
2022-10-31T22:36:27.638Z,14.20
2022-10-31T22:38:54.947Z,12.60
2022-10-31T22:41:24.332Z,13.02
2022-10-31T22:43:51.689Z,14.88
2022-10-31T22:46:24.629Z,12.43
2022-10-31T22:48:53.696Z,12.55
2022-10-31T22:51:23.640Z,11.85
2022-10-31T22:53:50.923Z,11.02
2022-10-31T22:56:21.710Z,15.07
2022-10-31T22:58:49.234Z,15.15
2022-10-31T23:01:18.765Z,14.80
2022-10-31T23:03:46.112Z,14.57
2022-10-31T23:06:16.497Z,12.68
2022-10-31T23:11:20.650Z,13.88
2022-10-31T23:14:07.753Z,10.57
2022-10-31T23:16:35.904Z,15.57
2022-10-31T23:19:07.712Z,12.85
2022-10-31T23:21:55.300Z,14.23
2022-10-31T23:24:36.702Z,18.58
2022-10-31T23:27:13.513Z,17.15
2022-10-31T23:29:44.759Z,14.98
2022-10-31T23:32:13.657Z,14.73
2022-10-31T23:34:40.375Z,12.13
2022-10-31T23:39:35.209Z,13.73
2022-10-31T23:42:02.012Z,13.88
2022-10-31T23:44:28.924Z,12.43
2022-10-31T23:46:55.599Z,17.20
2022-10-31T23:49:22.334Z,12.60
2022-10-31T23:51:50.338Z,12.05
2022-10-31T23:54:19.842Z,13.48
2022-10-31T23:56:46.507Z,15.67
2022-10-31T23:59:13.435Z,14.30
